Time;durP1;ratioP1;P1;durP2;ratioP2;P2;SDS_P1;SDS_P2;PMS_P1;PMS_P2;Temp;Humidity;BMP_temperature;BMP_pressure;BME280_temperature;BME280_humidity;BME280_pressure;Samples;Min_cycle;Max_cycle;Signal;HPM_P1;HPM_P2
2023/01/21 00:00:43;;;;;;;59.13;19.63;;;-5.20;99.90;;;;;;5047533;28;20025;-62
2023/01/21 00:03:09;;;;;;;57.60;20.48;;;-5.20;99.90;;;;;;5048354;28;20036;-62
2023/01/21 00:05:34;;;;;;;47.50;17.15;;;-5.20;99.90;;;;;;5048505;28;20135;-62
2023/01/21 00:08:00;;;;;;;42.45;16.23;;;-5.20;99.90;;;;;;5049402;28;20115;-62
2023/01/21 00:10:26;;;;;;;50.13;17.92;;;-5.10;99.90;;;;;;5047279;28;20029;-62
2023/01/21 00:12:51;;;;;;;57.00;18.52;;;-5.10;99.90;;;;;;5048563;28;20037;-62
2023/01/21 00:15:17;;;;;;;59.38;19.42;;;-5.10;99.90;;;;;;5047695;28;20513;-61
2023/01/21 00:17:43;;;;;;;49.42;18.48;;;-5.20;99.90;;;;;;5046376;28;20029;-62
2023/01/21 00:20:09;;;;;;;48.13;17.98;;;-5.30;99.90;;;;;;5047249;28;20098;-63
2023/01/21 00:22:35;;;;;;;53.53;19.15;;;-5.30;99.90;;;;;;5047898;28;20085;-63
2023/01/21 00:25:01;;;;;;;53.60;18.95;;;-5.40;99.90;;;;;;5047596;28;20428;-62
2023/01/21 00:27:27;;;;;;;55.30;19.38;;;-5.40;99.90;;;;;;5046995;28;20675;-63
2023/01/21 00:29:52;;;;;;;62.10;20.00;;;-5.50;99.90;;;;;;5046974;28;20064;-62
2023/01/21 00:32:18;;;;;;;54.70;19.73;;;-5.60;99.90;;;;;;5043849;28;20044;-62
2023/01/21 00:34:44;;;;;;;53.35;19.05;;;-5.60;99.90;;;;;;5048676;28;20033;-62
2023/01/21 00:37:10;;;;;;;56.35;19.92;;;-5.60;99.90;;;;;;5046731;28;20140;-63
2023/01/21 00:39:41;;;;;;;50.28;17.95;;;-5.60;99.90;;;;;;5047360;28;20029;-62
2023/01/21 00:42:07;;;;;;;54.80;17.88;;;-5.60;99.90;;;;;;5045434;28;20045;-63
2023/01/21 00:44:33;;;;;;;45.75;16.23;;;-5.60;99.90;;;;;;5046958;28;20033;-63
2023/01/21 00:46:59;;;;;;;44.97;15.88;;;-5.60;99.90;;;;;;5046963;28;20036;-61
2023/01/21 00:49:24;;;;;;;42.17;15.00;;;-5.60;99.90;;;;;;5045883;28;20099;-63
2023/01/21 00:51:50;;;;;;;44.40;15.20;;;-5.60;99.90;;;;;;5048650;28;20025;-63
2023/01/21 00:54:15;;;;;;;43.90;15.15;;;-5.60;99.90;;;;;;5045377;28;20036;-64
2023/01/21 00:56:41;;;;;;;46.70;15.90;;;-5.60;99.90;;;;;;5046567;28;20032;-63
2023/01/21 00:59:06;;;;;;;38.28;15.30;;;-5.60;99.90;;;;;;5046266;28;20124;-63
2023/01/21 01:01:36;;;;;;;48.85;15.95;;;-5.70;99.90;;;;;;5046702;28;20644;-62
2023/01/21 01:04:02;;;;;;;46.97;15.32;;;-5.70;99.90;;;;;;5046885;28;20036;-63
2023/01/21 01:06:27;;;;;;;42.55;15.32;;;-5.70;99.90;;;;;;5047928;28;20044;-63
2023/01/21 01:08:57;;;;;;;47.22;15.80;;;-5.70;99.90;;;;;;5045723;28;20037;-62
2023/01/21 01:11:25;;;;;;;46.93;15.60;;;-5.70;99.90;;;;;;5046651;28;20029;-62
2023/01/21 01:13:54;;;;;;;42.00;15.25;;;-5.70;99.90;;;;;;5046918;28;20112;-64
2023/01/21 01:16:20;;;;;;;42.38;15.90;;;-5.80;99.90;;;;;;5039778;28;20108;-63
2023/01/21 01:18:47;;;;;;;44.85;15.93;;;-5.80;99.90;;;;;;5045914;28;20029;-63
2023/01/21 01:21:18;;;;;;;39.95;14.90;;;-5.80;99.90;;;;;;5039632;28;20028;-63
2023/01/21 01:23:45;;;;;;;45.63;16.83;;;-5.90;99.90;;;;;;5046501;28;20124;-63
2023/01/21 01:26:13;;;;;;;43.90;15.80;;;-5.80;99.90;;;;;;5044935;28;20131;-63
2023/01/21 01:28:39;;;;;;;41.92;15.45;;;-5.80;99.90;;;;;;5047454;28;20037;-62
2023/01/21 01:31:06;;;;;;;40.15;14.95;;;-5.80;99.90;;;;;;5047004;28;20033;-62
2023/01/21 01:33:33;;;;;;;44.25;15.45;;;-5.90;99.90;;;;;;5044396;28;20745;-62
2023/01/21 01:36:02;;;;;;;49.33;15.23;;;-5.90;99.90;;;;;;5046550;28;20033;-63
2023/01/21 01:38:28;;;;;;;42.33;15.13;;;-5.90;99.90;;;;;;5041164;28;20037;-63
2023/01/21 01:40:54;;;;;;;44.88;14.88;;;-5.90;99.90;;;;;;5044431;28;20509;-62
2023/01/21 01:43:26;;;;;;;46.63;14.93;;;-5.90;99.90;;;;;;5046938;28;20049;-63
2023/01/21 01:45:52;;;;;;;43.58;14.57;;;-5.90;99.90;;;;;;5036912;28;20797;-62
2023/01/21 01:48:25;;;;;;;45.25;14.93;;;-5.90;99.90;;;;;;5038395;28;20029;-64
2023/01/21 01:50:51;;;;;;;42.35;14.85;;;-5.90;99.90;;;;;;5046127;28;20033;-63
2023/01/21 01:53:18;;;;;;;44.28;14.10;;;-6.00;99.90;;;;;;5043999;28;20104;-63
2023/01/21 01:55:46;;;;;;;41.95;14.88;;;-5.90;99.90;;;;;;5043630;28;20028;-63
2023/01/21 01:58:13;;;;;;;41.45;14.15;;;-5.90;99.90;;;;;;5046073;28;20040;-63
2023/01/21 02:00:39;;;;;;;52.38;16.00;;;-5.90;99.90;;;;;;5045619;28;20021;-64
2023/01/21 02:05:52;;;;;;;41.58;14.63;;;-6.00;99.90;;;;;;5042103;28;20108;-62
2023/01/21 02:08:18;;;;;;;42.65;14.25;;;-6.00;99.90;;;;;;5044739;28;20040;-63
2023/01/21 02:10:44;;;;;;;37.65;14.30;;;-6.10;99.90;;;;;;5047049;28;20032;-61
2023/01/21 02:13:10;;;;;;;44.28;14.88;;;-6.10;99.90;;;;;;5045868;28;20113;-64
2023/01/21 02:16:06;;;;;;;43.95;14.80;;;-6.10;99.90;;;;;;5044771;28;20553;-63
2023/01/21 02:18:53;;;;;;;38.78;14.32;;;-6.10;99.90;;;;;;5024387;28;20079;-62
2023/01/21 02:21:28;;;;;;;40.45;14.85;;;-6.10;99.90;;;;;;5044375;28;20029;-63
2023/01/21 02:24:14;;;;;;;42.58;14.73;;;-6.20;99.90;;;;;;5045614;28;20363;-62
2023/01/21 02:26:52;;;;;;;44.42;14.15;;;-6.20;99.90;;;;;;5043997;28;20017;-62
2023/01/21 02:29:56;;;;;;;41.72;14.32;;;-6.20;99.90;;;;;;5044442;28;20238;-64
2023/01/21 02:32:52;;;;;;;36.80;13.52;;;-6.10;99.90;;;;;;5018943;28;20060;-62
2023/01/21 02:35:25;;;;;;;39.42;13.82;;;-6.10;99.90;;;;;;5045766;28;20059;-64
2023/01/21 02:37:58;;;;;;;43.35;14.60;;;-6.00;99.90;;;;;;5039365;28;20470;-63
2023/01/21 02:40:28;;;;;;;44.05;14.52;;;-6.00;99.90;;;;;;5046663;28;20102;-63
2023/01/21 02:43:09;;;;;;;44.42;15.02;;;-6.10;99.90;;;;;;5049167;28;20041;-62
2023/01/21 02:45:45;;;;;;;38.65;14.20;;;-6.20;99.90;;;;;;5048608;28;20028;-63
2023/01/21 02:48:27;;;;;;;45.97;13.90;;;-6.20;99.90;;;;;;5049775;28;20481;-63
2023/01/21 02:50:53;;;;;;;46.17;15.02;;;-6.10;99.90;;;;;;5046661;28;20044;-63
2023/01/21 02:53:26;;;;;;;40.80;13.07;;;-6.20;99.90;;;;;;5049581;28;20029;-62
2023/01/21 02:55:52;;;;;;;43.72;15.10;;;-6.30;99.90;;;;;;5049689;28;20033;-61
2023/01/21 02:58:23;;;;;;;40.20;14.13;;;-6.30;99.90;;;;;;5050303;28;20056;-63
2023/01/21 03:01:06;;;;;;;44.38;14.32;;;-6.30;99.90;;;;;;5048402;28;20112;-62
2023/01/21 03:03:32;;;;;;;40.90;14.32;;;-6.30;99.90;;;;;;5049071;28;20036;-63
2023/01/21 03:06:10;;;;;;;44.67;14.65;;;-6.30;99.90;;;;;;5049167;28;20100;-63
2023/01/21 03:08:55;;;;;;;43.58;14.18;;;-6.40;99.90;;;;;;5048317;28;20045;-63
2023/01/21 03:11:22;;;;;;;34.70;12.80;;;-6.40;99.90;;;;;;5044007;28;20037;-63
2023/01/21 03:16:57;;;;;;;37.08;13.57;;;-6.40;99.90;;;;;;5048562;28;20136;-62
2023/01/21 03:19:41;;;;;;;39.78;13.73;;;-6.40;99.90;;;;;;5044248;28;20124;-63
2023/01/21 03:22:13;;;;;;;39.60;14.52;;;-6.40;99.90;;;;;;5035800;28;20354;-62
2023/01/21 03:24:42;;;;;;;40.60;13.73;;;-6.50;99.90;;;;;;5046176;28;20048;-63
2023/01/21 03:27:11;;;;;;;44.40;14.65;;;-6.50;99.90;;;;;;5048938;28;20068;-63
2023/01/21 03:29:40;;;;;;;54.33;17.35;;;-6.50;99.90;;;;;;5049412;28;20052;-63
2023/01/21 03:32:09;;;;;;;38.53;13.90;;;-6.50;99.90;;;;;;5048179;28;20025;-62
2023/01/21 03:34:40;;;;;;;51.58;16.30;;;-6.50;99.90;;;;;;5049431;28;20037;-63
2023/01/21 03:37:08;;;;;;;67.10;20.27;;;-6.40;99.90;;;;;;5049450;28;20063;-62
2023/01/21 03:39:45;;;;;;;64.18;19.73;;;-6.50;99.90;;;;;;5046639;28;20123;-63
2023/01/21 03:42:12;;;;;;;39.75;14.10;;;-6.60;99.90;;;;;;5047913;28;20040;-62
2023/01/21 03:44:39;;;;;;;46.30;15.57;;;-6.60;99.90;;;;;;5049086;28;20032;-62
2023/01/21 03:47:27;;;;;;;67.68;20.50;;;-6.70;99.90;;;;;;5032185;28;20071;-62
2023/01/21 03:50:00;;;;;;;67.15;20.50;;;-6.70;99.90;;;;;;5047200;28;20490;-63
2023/01/21 03:52:26;;;;;;;67.93;21.10;;;-6.60;99.90;;;;;;5048210;28;20028;-62
2023/01/21 03:54:53;;;;;;;78.15;22.15;;;-6.60;99.90;;;;;;5047697;28;20021;-62
2023/01/21 03:57:18;;;;;;;55.97;17.30;;;-6.50;99.90;;;;;;5048529;28;20079;-63
2023/01/21 03:59:44;;;;;;;49.90;15.88;;;-6.50;99.90;;;;;;5048423;28;20032;-63
2023/01/21 04:02:10;;;;;;;47.25;15.98;;;-6.50;99.90;;;;;;5046978;28;20033;-61
2023/01/21 04:04:36;;;;;;;43.60;14.27;;;-6.40;99.90;;;;;;5043465;28;20439;-61
2023/01/21 04:07:01;;;;;;;40.03;13.70;;;-6.50;99.90;;;;;;5049084;28;20111;-62
2023/01/21 04:09:27;;;;;;;49.53;16.08;;;-6.50;99.90;;;;;;5047372;28;20491;-62
2023/01/21 04:11:53;;;;;;;55.42;17.02;;;-6.40;99.90;;;;;;5047423;28;20453;-62
2023/01/21 04:14:18;;;;;;;38.97;14.52;;;-6.40;99.90;;;;;;5048078;28;20033;-62
2023/01/21 04:16:44;;;;;;;43.15;14.40;;;-6.30;99.90;;;;;;5044623;28;20032;-62
2023/01/21 04:19:09;;;;;;;49.97;15.65;;;-6.40;99.90;;;;;;5049148;28;20707;-62
2023/01/21 04:21:35;;;;;;;55.20;16.52;;;-6.30;99.90;;;;;;5047364;28;20462;-61
2023/01/21 04:24:01;;;;;;;49.47;16.38;;;-6.20;99.90;;;;;;5049206;28;20466;-63
2023/01/21 04:26:26;;;;;;;60.70;17.33;;;-6.10;99.90;;;;;;5047763;28;20021;-63
2023/01/21 04:28:52;;;;;;;54.92;16.77;;;-6.00;99.90;;;;;;5047328;28;20073;-62
2023/01/21 04:31:17;;;;;;;56.03;16.88;;;-5.90;99.90;;;;;;5047457;28;20033;-62
2023/01/21 04:33:43;;;;;;;39.75;14.98;;;-5.80;99.90;;;;;;5046260;28;20096;-62
2023/01/21 04:36:09;;;;;;;49.72;15.93;;;-5.80;99.90;;;;;;5048876;28;20099;-62
2023/01/21 04:38:34;;;;;;;41.97;14.63;;;-5.90;99.90;;;;;;5041134;28;20055;-63
2023/01/21 04:41:00;;;;;;;56.90;15.45;;;-5.80;99.90;;;;;;5048559;28;20056;-63
2023/01/21 04:43:26;;;;;;;45.90;16.38;;;-5.80;99.90;;;;;;5046982;28;20060;-63
2023/01/21 04:45:51;;;;;;;48.75;17.63;;;-5.80;99.90;;;;;;5047026;28;20138;-61
2023/01/21 04:48:17;;;;;;;45.78;15.15;;;-5.70;99.90;;;;;;5036933;28;20112;-63
2023/01/21 04:50:43;;;;;;;50.22;15.63;;;-5.60;99.90;;;;;;5046987;28;20029;-63
2023/01/21 04:53:08;;;;;;;44.95;14.48;;;-5.60;99.90;;;;;;5039979;28;20029;-63
2023/01/21 04:55:34;;;;;;;50.08;14.60;;;-5.50;99.90;;;;;;5038952;28;20044;-63
2023/01/21 04:57:59;;;;;;;49.67;15.68;;;-5.50;99.90;;;;;;5048567;28;20033;-63
2023/01/21 05:00:25;;;;;;;55.72;16.85;;;-5.40;99.90;;;;;;5047843;28;20041;-64
2023/01/21 05:02:51;;;;;;;62.53;17.02;;;-5.30;99.90;;;;;;5046179;28;20155;-63
2023/01/21 05:05:16;;;;;;;52.53;15.60;;;-5.20;99.90;;;;;;5047706;28;20132;-63
2023/01/21 05:07:42;;;;;;;57.97;15.48;;;-5.00;99.90;;;;;;5047401;28;20784;-63
2023/01/21 05:10:13;;;;;;;56.15;15.95;;;-5.00;99.90;;;;;;5047761;28;20037;-63
2023/01/21 05:12:39;;;;;;;53.22;16.40;;;-5.00;99.90;;;;;;5047428;28;20529;-63
2023/01/21 05:15:05;;;;;;;48.08;14.32;;;-4.90;99.90;;;;;;5047309;28;20120;-63
2023/01/21 05:17:31;;;;;;;58.10;15.95;;;-4.80;99.90;;;;;;5046063;28;20027;-64
2023/01/21 05:19:57;;;;;;;52.08;14.85;;;-4.80;99.90;;;;;;5046769;28;20124;-63
2023/01/21 05:22:22;;;;;;;55.92;16.52;;;-4.70;99.90;;;;;;5047303;28;20463;-63
2023/01/21 05:24:48;;;;;;;58.28;15.82;;;-4.70;99.90;;;;;;5046225;28;20033;-64
2023/01/21 05:27:14;;;;;;;59.33;17.02;;;-4.60;99.90;;;;;;5046706;28;20032;-63
2023/01/21 05:29:40;;;;;;;60.20;17.05;;;-4.60;99.90;;;;;;5046565;28;20490;-63
2023/01/21 05:32:06;;;;;;;56.20;16.40;;;-4.50;99.90;;;;;;5048218;28;20048;-63
2023/01/21 05:34:31;;;;;;;53.60;16.05;;;-4.50;99.90;;;;;;5046465;28;20029;-63
2023/01/21 05:36:57;;;;;;;53.08;15.75;;;-4.50;99.90;;;;;;5046201;28;20110;-63
2023/01/21 05:39:23;;;;;;;55.88;16.88;;;-4.40;99.90;;;;;;5047295;28;20039;-63
2023/01/21 05:41:48;;;;;;;59.10;17.13;;;-4.40;99.90;;;;;;5045123;28;20053;-64
2023/01/21 05:44:14;;;;;;;62.17;16.80;;;-4.30;99.90;;;;;;5047388;28;20040;-63
2023/01/21 05:46:39;;;;;;;52.90;15.50;;;-4.30;99.90;;;;;;5046787;28;20141;-63
2023/01/21 05:49:05;;;;;;;54.03;15.98;;;-4.30;99.90;;;;;;5037481;28;20037;-63
2023/01/21 05:51:31;;;;;;;54.30;16.65;;;-4.30;99.90;;;;;;5061570;28;20032;-63
2023/01/21 05:53:56;;;;;;;57.38;16.65;;;-4.20;99.90;;;;;;5046386;28;20020;-63
2023/01/21 05:56:22;;;;;;;60.70;17.75;;;-4.20;99.90;;;;;;5047923;28;20037;-63
2023/01/21 05:58:48;;;;;;;58.75;15.90;;;-4.10;99.90;;;;;;5045697;28;20629;-64
2023/01/21 06:01:13;;;;;;;55.92;17.20;;;-4.10;99.90;;;;;;5040979;28;20486;-63
2023/01/21 06:03:39;;;;;;;64.25;17.65;;;-4.00;99.90;;;;;;5042551;28;20354;-63
2023/01/21 06:06:05;;;;;;;63.60;17.48;;;-4.00;99.90;;;;;;5047054;28;20033;-63
2023/01/21 06:08:30;;;;;;;56.60;16.58;;;-3.90;99.90;;;;;;5045534;28;20371;-64
2023/01/21 06:10:56;;;;;;;59.63;15.90;;;-3.90;99.90;;;;;;5046532;28;20083;-63
2023/01/21 06:13:22;;;;;;;50.15;15.55;;;-3.90;99.90;;;;;;5045941;28;20037;-63
2023/01/21 06:15:48;;;;;;;53.40;16.42;;;-3.90;99.90;;;;;;5044654;28;20025;-63
2023/01/21 06:18:13;;;;;;;52.13;16.42;;;-3.90;99.90;;;;;;5050982;28;20024;-63
2023/01/21 06:20:39;;;;;;;54.67;16.10;;;-3.90;99.90;;;;;;5047288;28;20028;-63
2023/01/21 06:23:05;;;;;;;53.38;16.05;;;-3.90;99.90;;;;;;5050838;28;20090;-64
2023/01/21 06:25:31;;;;;;;58.45;16.33;;;-4.00;99.90;;;;;;5049685;28;20393;-63
2023/01/21 06:27:57;;;;;;;59.28;17.48;;;-3.90;99.90;;;;;;5048913;28;20091;-64
2023/01/21 06:30:24;;;;;;;57.95;17.75;;;-3.90;99.90;;;;;;5043817;28;20040;-64
2023/01/21 06:32:50;;;;;;;59.70;17.60;;;-3.80;99.90;;;;;;5046135;28;20056;-63
2023/01/21 06:35:16;;;;;;;59.55;18.83;;;-3.80;99.90;;;;;;5050123;28;20378;-63
2023/01/21 06:37:43;;;;;;;60.08;18.45;;;-3.80;99.90;;;;;;5045347;28;20028;-62
2023/01/21 06:40:10;;;;;;;70.85;21.00;;;-3.70;99.90;;;;;;5053353;28;20033;-62
2023/01/21 06:42:35;;;;;;;66.55;19.80;;;-3.70;99.90;;;;;;5048995;28;20061;-63
2023/01/21 06:45:01;;;;;;;69.75;20.25;;;-3.60;99.90;;;;;;5059294;28;20041;-63
2023/01/21 06:47:27;;;;;;;70.68;19.25;;;-3.60;99.90;;;;;;5044570;28;20448;-63
2023/01/21 06:49:53;;;;;;;64.70;17.48;;;-3.60;99.90;;;;;;5046832;28;20048;-62
2023/01/21 06:52:18;;;;;;;67.57;17.95;;;-3.50;99.90;;;;;;5044042;28;20405;-63
2023/01/21 06:54:44;;;;;;;72.57;19.75;;;-3.50;99.90;;;;;;5047489;28;20433;-63
2023/01/21 06:57:10;;;;;;;61.88;19.05;;;-3.50;99.90;;;;;;5041147;28;20029;-63
2023/01/21 06:59:36;;;;;;;78.72;22.40;;;-3.50;99.90;;;;;;5047738;28;20064;-64
2023/01/21 07:02:01;;;;;;;76.57;21.25;;;-3.50;99.90;;;;;;5050375;28;20067;-63
2023/01/21 07:04:27;;;;;;;69.10;22.08;;;-3.40;99.90;;;;;;5044267;28;20055;-63
2023/01/21 07:06:53;;;;;;;67.03;19.95;;;-3.40;99.90;;;;;;5047832;28;20064;-63
2023/01/21 07:09:19;;;;;;;69.90;21.60;;;-3.40;99.90;;;;;;5043674;28;20061;-63
2023/01/21 07:11:45;;;;;;;63.38;19.80;;;-3.40;99.90;;;;;;5047733;28;20033;-63
2023/01/21 07:14:11;;;;;;;65.97;20.05;;;-3.30;99.90;;;;;;5049528;28;20057;-64
2023/01/21 07:16:36;;;;;;;66.85;19.88;;;-3.30;99.90;;;;;;5049757;28;20056;-65
2023/01/21 07:19:02;;;;;;;75.68;20.63;;;-3.40;99.90;;;;;;5049816;28;20037;-63
2023/01/21 07:21:28;;;;;;;69.82;19.95;;;-3.40;99.90;;;;;;5047902;28;20082;-63
2023/01/21 07:23:54;;;;;;;63.72;18.23;;;-3.50;99.90;;;;;;5048577;28;20029;-63
2023/01/21 07:26:21;;;;;;;69.88;19.38;;;-3.50;99.90;;;;;;5046641;28;20021;-63
2023/01/21 07:28:46;;;;;;;71.13;19.75;;;-3.40;99.90;;;;;;5047289;28;20037;-64
2023/01/21 07:31:12;;;;;;;68.30;19.13;;;-3.40;99.90;;;;;;5049331;28;20036;-64
2023/01/21 07:33:39;;;;;;;64.55;18.85;;;-3.40;99.90;;;;;;5047750;28;20036;-64
2023/01/21 07:36:05;;;;;;;73.82;19.45;;;-3.40;99.90;;;;;;5049283;28;20182;-63
2023/01/21 07:38:31;;;;;;;68.97;18.95;;;-3.40;99.90;;;;;;5042449;28;20327;-64
2023/01/21 07:40:56;;;;;;;62.13;18.67;;;-3.30;99.90;;;;;;5042074;28;20036;-65
2023/01/21 07:43:22;;;;;;;64.50;18.00;;;-3.30;99.90;;;;;;5049790;28;20111;-64
2023/01/21 07:45:48;;;;;;;61.05;18.10;;;-3.30;99.90;;;;;;5048244;28;20469;-64
2023/01/21 07:48:13;;;;;;;74.20;19.05;;;-3.30;99.90;;;;;;5049385;28;20410;-64
2023/01/21 07:50:39;;;;;;;69.07;19.10;;;-3.30;99.90;;;;;;5048003;28;20111;-63
2023/01/21 07:53:05;;;;;;;63.40;17.60;;;-3.20;99.90;;;;;;5044543;28;20041;-64
2023/01/21 07:55:31;;;;;;;62.38;18.52;;;-3.20;99.90;;;;;;5048860;28;20033;-63
2023/01/21 07:57:58;;;;;;;62.25;17.48;;;-3.20;99.90;;;;;;5049053;28;20064;-64
2023/01/21 08:00:26;;;;;;;65.90;18.05;;;-3.10;99.90;;;;;;5049681;28;20063;-63
2023/01/21 08:02:55;;;;;;;63.28;17.75;;;-3.00;99.90;;;;;;5046469;28;20021;-63
2023/01/21 08:05:22;;;;;;;63.70;18.77;;;-2.90;99.90;;;;;;5049062;28;20390;-63
2023/01/21 08:07:49;;;;;;;62.53;18.95;;;-2.90;99.90;;;;;;5047867;28;20033;-63
2023/01/21 08:10:16;;;;;;;68.40;18.40;;;-2.90;99.90;;;;;;5049075;28;20192;-64
2023/01/21 08:12:41;;;;;;;64.25;19.38;;;-2.90;99.90;;;;;;5048408;28;20033;-63
2023/01/21 08:15:08;;;;;;;66.57;19.15;;;-2.80;99.90;;;;;;5049235;28;20044;-62
2023/01/21 08:17:37;;;;;;;62.80;18.17;;;-2.70;99.90;;;;;;5047849;28;20386;-63
2023/01/21 08:20:04;;;;;;;68.80;19.60;;;-2.60;99.90;;;;;;5049034;28;20037;-63
2023/01/21 08:22:29;;;;;;;66.55;18.88;;;-2.50;99.90;;;;;;5048798;28;20115;-63
2023/01/21 08:24:55;;;;;;;63.13;19.08;;;-2.50;99.90;;;;;;5048262;28;20705;-63
2023/01/21 08:27:21;;;;;;;67.55;19.85;;;-2.50;99.90;;;;;;5048681;28;20051;-63
2023/01/21 08:29:47;;;;;;;64.25;19.10;;;-2.40;99.90;;;;;;5047041;28;20097;-63
2023/01/21 08:32:13;;;;;;;66.20;19.95;;;-2.40;99.90;;;;;;5049087;28;20036;-63
2023/01/21 08:34:39;;;;;;;71.45;20.35;;;-2.30;99.90;;;;;;5048178;28;20033;-63
2023/01/21 08:37:04;;;;;;;73.78;21.00;;;-2.30;99.90;;;;;;5049011;28;20044;-63
2023/01/21 08:39:30;;;;;;;66.82;20.98;;;-2.30;99.90;;;;;;5047961;28;20094;-62
2023/01/21 08:41:56;;;;;;;67.63;20.05;;;-2.30;99.90;;;;;;5047182;28;20052;-63
2023/01/21 08:44:21;;;;;;;61.55;20.88;;;-2.20;99.90;;;;;;5047757;28;20033;-63
2023/01/21 08:46:47;;;;;;;66.80;20.75;;;-2.20;99.90;;;;;;5045012;28;20086;-63
2023/01/21 08:49:13;;;;;;;69.28;21.52;;;-2.10;99.90;;;;;;5048702;28;20106;-63
2023/01/21 08:51:38;;;;;;;65.55;20.65;;;-2.10;99.90;;;;;;5047511;28;20052;-64
2023/01/21 08:54:04;;;;;;;70.45;20.25;;;-2.10;99.90;;;;;;5047823;28;20499;-63
2023/01/21 08:56:30;;;;;;;63.45;21.65;;;-2.10;99.90;;;;;;5048195;28;20028;-63
2023/01/21 08:58:56;;;;;;;73.25;21.30;;;-2.10;99.90;;;;;;5047514;28;20051;-63
2023/01/21 09:01:23;;;;;;;66.80;20.23;;;-2.00;99.90;;;;;;5048512;28;20028;-63
2023/01/21 09:03:54;;;;;;;66.53;20.30;;;-2.00;99.90;;;;;;5047688;28;20031;-64
2023/01/21 09:06:20;;;;;;;64.18;20.52;;;-1.90;99.90;;;;;;5048404;28;20082;-63
2023/01/21 09:08:46;;;;;;;75.72;22.60;;;-1.90;99.90;;;;;;5045782;28;20040;-63
2023/01/21 09:11:12;;;;;;;75.07;21.05;;;-1.80;99.90;;;;;;5048171;28;20060;-63
2023/01/21 09:13:38;;;;;;;70.50;21.13;;;-1.70;99.90;;;;;;5048098;28;20075;-64
2023/01/21 09:16:18;;;;;;;76.85;22.90;;;-1.70;99.90;;;;;;5047891;28;20036;-63
2023/01/21 09:18:44;;;;;;;71.00;22.33;;;-1.60;99.90;;;;;;5047542;28;20031;-64
2023/01/21 09:21:10;;;;;;;69.53;21.33;;;-1.50;99.90;;;;;;5047185;28;20044;-64
2023/01/21 09:23:37;;;;;;;68.82;22.45;;;-1.50;99.90;;;;;;5047723;28;20029;-63
2023/01/21 09:26:14;;;;;;;62.45;20.85;;;-1.50;99.90;;;;;;5047273;28;20078;-62
2023/01/21 09:28:41;;;;;;;60.53;18.42;;;-1.40;99.90;;;;;;5043286;28;20035;-63
2023/01/21 09:31:15;;;;;;;64.22;19.65;;;-1.40;99.90;;;;;;5047910;28;20029;-63
2023/01/21 09:33:44;;;;;;;73.80;21.33;;;-1.30;99.90;;;;;;5038925;28;20025;-63
2023/01/21 09:36:21;;;;;;;61.67;19.02;;;-1.30;99.90;;;;;;5047198;28;20040;-64
2023/01/21 09:38:48;;;;;;;61.92;18.50;;;-1.30;99.90;;;;;;5047118;28;20428;-64
2023/01/21 09:41:28;;;;;;;59.75;17.80;;;-1.20;99.90;;;;;;5047570;28;20489;-63
2023/01/21 09:44:04;;;;;;;56.92;17.55;;;-1.20;99.90;;;;;;5047039;28;20041;-64
2023/01/21 09:46:47;;;;;;;73.53;21.30;;;-1.20;99.90;;;;;;5048298;28;20112;-63
2023/01/21 09:49:21;;;;;;;77.97;26.27;;;-1.00;99.90;;;;;;5042142;28;20393;-63
2023/01/21 09:51:55;;;;;;;66.50;21.23;;;-1.00;99.90;;;;;;5047361;28;20832;-64
2023/01/21 09:54:31;;;;;;;64.90;21.25;;;-0.90;99.90;;;;;;5052101;28;20032;-63
2023/01/21 09:57:05;;;;;;;60.83;21.10;;;-0.90;99.90;;;;;;5047158;28;20028;-63
2023/01/21 09:59:42;;;;;;;58.08;17.52;;;-0.80;99.90;;;;;;5043651;28;20460;-63
2023/01/21 10:02:30;;;;;;;58.25;18.15;;;-0.80;99.90;;;;;;5046451;28;20029;-64
2023/01/21 10:05:23;;;;;;;65.05;19.55;;;-0.80;99.90;;;;;;5048485;28;20090;-63
2023/01/21 10:08:25;;;;;;;59.30;18.45;;;-0.70;99.90;;;;;;5047975;28;20059;-64
2023/01/21 10:10:59;;;;;;;54.38;17.02;;;-0.70;99.90;;;;;;5048354;28;20179;-63
2023/01/21 10:14:02;;;;;;;53.00;17.40;;;-0.70;99.90;;;;;;5051093;28;20142;-63
2023/01/21 10:16:33;;;;;;;58.95;18.05;;;-0.70;99.90;;;;;;5048822;28;20116;-63
2023/01/21 10:19:02;;;;;;;56.40;17.58;;;-0.70;99.90;;;;;;5049437;28;20094;-63
2023/01/21 10:21:52;;;;;;;55.88;16.70;;;-0.80;99.90;;;;;;5051140;28;20039;-63
2023/01/21 10:24:39;;;;;;;53.22;17.40;;;-0.80;99.90;;;;;;5046135;28;20116;-62
2023/01/21 10:27:09;;;;;;;54.17;16.65;;;-0.80;99.90;;;;;;5050276;28;20628;-63
2023/01/21 10:29:37;;;;;;;54.88;17.23;;;-0.70;99.90;;;;;;5045903;28;20508;-63
2023/01/21 10:32:06;;;;;;;59.40;17.35;;;-0.70;99.90;;;;;;5048660;28;20032;-64
2023/01/21 10:34:38;;;;;;;57.08;16.75;;;-0.60;99.90;;;;;;5050701;28;20120;-63
2023/01/21 10:37:30;;;;;;;56.47;16.35;;;-0.70;99.90;;;;;;5049874;28;20443;-63
2023/01/21 10:40:41;;;;;;;52.67;16.40;;;-0.70;99.90;;;;;;5046649;28;20102;-64
2023/01/21 10:43:18;;;;;;;48.70;15.13;;;-0.70;99.90;;;;;;5048445;28;20056;-63
2023/01/21 10:46:21;;;;;;;45.97;15.70;;;-0.70;99.90;;;;;;5045211;28;20167;-63
2023/01/21 10:49:26;;;;;;;47.58;14.90;;;-0.70;99.90;;;;;;5024407;28;20122;-64
2023/01/21 10:52:17;;;;;;;44.22;14.30;;;-0.80;99.90;;;;;;5010842;28;20224;-63
2023/01/21 10:55:21;;;;;;;45.17;13.45;;;-0.80;99.90;;;;;;5044988;28;20074;-63
2023/01/21 10:57:55;;;;;;;44.95;14.68;;;-0.70;99.90;;;;;;5048967;28;20143;-64
2023/01/21 11:00:31;;;;;;;46.17;15.25;;;-0.70;99.90;;;;;;5048057;28;20127;-63
2023/01/21 11:03:02;;;;;;;46.45;15.00;;;-0.70;99.90;;;;;;5049266;28;20048;-63
2023/01/21 11:05:29;;;;;;;42.08;14.70;;;-0.70;99.90;;;;;;5048299;28;20028;-63
2023/01/21 11:07:56;;;;;;;44.55;14.57;;;-0.70;99.90;;;;;;5048514;28;20051;-63
2023/01/21 11:10:25;;;;;;;39.70;13.70;;;-0.70;99.90;;;;;;5049530;28;20166;-63
2023/01/21 11:12:53;;;;;;;51.70;15.00;;;-0.70;99.90;;;;;;5045441;28;20035;-63
2023/01/21 11:15:20;;;;;;;45.80;16.65;;;-0.70;99.90;;;;;;5047014;28;20037;-64
2023/01/21 11:17:49;;;;;;;50.22;15.93;;;-0.60;99.90;;;;;;5045189;28;20033;-64
2023/01/21 11:20:17;;;;;;;50.83;17.67;;;-0.60;99.90;;;;;;5047876;28;20108;-63
2023/01/21 11:22:45;;;;;;;50.17;15.75;;;-0.60;99.90;;;;;;5048220;28;20033;-64
2023/01/21 11:25:30;;;;;;;52.22;18.90;;;-0.60;99.90;;;;;;5043399;28;20152;-63
2023/01/21 11:27:56;;;;;;;53.78;17.48;;;-0.50;99.90;;;;;;5043317;28;20048;-63
2023/01/21 11:30:30;;;;;;;49.13;17.70;;;-0.40;99.90;;;;;;5047812;28;20033;-64
2023/01/21 11:33:16;;;;;;;60.78;20.42;;;-0.30;99.90;;;;;;5045277;28;20083;-63
2023/01/21 11:35:42;;;;;;;46.25;17.35;;;-0.30;99.90;;;;;;5044928;28;20059;-63
2023/01/21 11:38:24;;;;;;;44.33;14.85;;;-0.20;99.90;;;;;;5048319;28;20354;-63
2023/01/21 11:41:04;;;;;;;44.05;15.82;;;-0.20;99.90;;;;;;5042759;28;20440;-64
2023/01/21 11:43:45;;;;;;;41.92;14.82;;;-0.20;99.90;;;;;;5043917;28;20049;-63
2023/01/21 11:46:20;;;;;;;50.80;17.10;;;-0.30;99.90;;;;;;5040176;28;20029;-62
2023/01/21 11:48:46;;;;;;;45.88;15.40;;;-0.20;99.90;;;;;;5044167;28;20025;-63
2023/01/21 11:51:12;;;;;;;43.22;14.75;;;-0.10;99.90;;;;;;5045280;28;20102;-64
2023/01/21 11:53:37;;;;;;;52.60;17.50;;;-0.30;99.90;;;;;;5047212;28;20060;-63
2023/01/21 11:56:04;;;;;;;50.15;16.85;;;-0.30;99.90;;;;;;5044739;28;20100;-64
2023/01/21 11:58:34;;;;;;;56.83;18.30;;;-0.20;99.90;;;;;;5049425;28;20025;-63
2023/01/21 12:01:02;;;;;;;68.28;21.35;;;-0.30;99.90;;;;;;5041875;28;20029;-64
2023/01/21 12:03:41;;;;;;;61.65;21.05;;;-0.30;99.90;;;;;;5043357;28;20431;-64
2023/01/21 12:06:08;;;;;;;58.40;20.08;;;-0.30;99.90;;;;;;5037646;28;20480;-64
2023/01/21 12:08:37;;;;;;;52.60;18.10;;;-0.50;99.90;;;;;;5045247;28;20489;-64
2023/01/21 12:11:05;;;;;;;42.38;14.68;;;-0.50;99.90;;;;;;5038304;28;20124;-64
2023/01/21 12:13:41;;;;;;;45.78;15.38;;;-0.40;99.90;;;;;;5041844;28;20115;-64
2023/01/21 12:16:26;;;;;;;53.92;17.83;;;-0.40;99.90;;;;;;5045199;28;20040;-64
2023/01/21 12:19:16;;;;;;;55.53;18.15;;;-0.30;99.90;;;;;;5043304;28;20037;-65
2023/01/21 12:21:48;;;;;;;;;;;-0.30;99.90;;;;;;5047092;28;20462;-64
2023/01/21 12:24:23;;;;;;;57.55;17.38;;;-0.30;99.90;;;;;;5049099;28;20027;-63
2023/01/21 12:27:26;;;;;;;47.30;16.10;;;-0.20;99.90;;;;;;5042012;28;20102;-68
2023/01/21 12:30:25;;;;;;;42.63;15.27;;;-0.30;99.90;;;;;;5045180;28;20758;-67
2023/01/21 12:32:59;;;;;;;46.20;15.15;;;-0.30;99.90;;;;;;5045972;28;20086;-67
2023/01/21 12:35:49;;;;;;;42.78;14.80;;;-0.30;99.90;;;;;;5046321;28;20658;-64
2023/01/21 12:38:19;;;;;;;46.17;15.77;;;-0.30;99.90;;;;;;5039676;28;20051;-64
2023/01/21 12:40:52;;;;;;;46.22;17.30;;;-0.40;99.90;;;;;;5048024;28;20057;-64
2023/01/21 12:43:23;;;;;;;42.78;15.52;;;-0.40;99.90;;;;;;5046611;28;20053;-63
2023/01/21 12:45:58;;;;;;;40.47;14.65;;;-0.50;99.90;;;;;;5047533;28;20029;-64
2023/01/21 12:48:30;;;;;;;45.28;15.55;;;-0.50;99.90;;;;;;5042585;28;20035;-64